createdAt,value
2022-11-20T00:00:46.354Z,3.27
2022-11-20T00:03:15.093Z,3.22
2022-11-20T00:05:44.389Z,3.12
2022-11-20T00:08:12.642Z,2.99
2022-11-20T00:10:40.982Z,3.03
2022-11-20T00:13:09.229Z,3.02
2022-11-20T00:15:37.066Z,3.06
2022-11-20T00:18:05.088Z,2.99
2022-11-20T00:20:32.998Z,3.09
2022-11-20T00:23:02.194Z,2.96
2022-11-20T00:25:30.063Z,2.88
2022-11-20T00:27:57.989Z,2.94
2022-11-20T00:30:25.805Z,2.99
2022-11-20T00:32:53.625Z,2.95
2022-11-20T00:35:21.511Z,3.00
2022-11-20T00:37:49.285Z,2.97
2022-11-20T00:40:18.751Z,2.97
2022-11-20T00:42:46.638Z,2.94
2022-11-20T00:45:14.510Z,3.03
2022-11-20T00:47:42.356Z,3.10
2022-11-20T00:50:10.888Z,3.16
2022-11-20T00:52:38.732Z,3.18
2022-11-20T00:55:07.648Z,3.00
2022-11-20T00:57:37.080Z,2.93
2022-11-20T01:00:05.914Z,2.98
2022-11-20T01:02:33.775Z,3.02
2022-11-20T01:05:01.694Z,3.08
2022-11-20T01:07:29.626Z,3.14
2022-11-20T01:09:57.497Z,3.03
2022-11-20T01:12:25.305Z,3.14
2022-11-20T01:14:54.556Z,2.98
2022-11-20T01:17:22.449Z,3.05
2022-11-20T01:19:51.132Z,3.04
2022-11-20T01:22:18.997Z,3.06
2022-11-20T01:24:46.877Z,3.17
2022-11-20T01:27:14.693Z,3.07
2022-11-20T01:29:42.574Z,3.08
2022-11-20T01:32:11.802Z,3.03
2022-11-20T01:34:39.617Z,3.14
2022-11-20T01:37:07.766Z,2.89
2022-11-20T01:39:35.649Z,2.79
2022-11-20T01:42:21.158Z,2.79
2022-11-20T01:44:55.497Z,2.85
2022-11-20T01:47:30.072Z,2.63
2022-11-20T01:50:02.170Z,2.53
2022-11-20T01:52:33.236Z,2.51
2022-11-20T01:55:04.011Z,2.51
2022-11-20T01:57:33.753Z,2.55
2022-11-20T02:00:05.363Z,2.54
2022-11-20T02:02:43.472Z,2.42
2022-11-20T02:05:17.493Z,2.50
2022-11-20T02:07:45.728Z,2.33
2022-11-20T02:10:13.781Z,2.39
2022-11-20T02:13:17.785Z,2.48
2022-11-20T02:15:46.368Z,2.67
2022-11-20T02:18:23.786Z,2.54
2022-11-20T02:20:55.475Z,2.32
2022-11-20T02:23:27.506Z,2.34
2022-11-20T02:25:57.421Z,2.18
2022-11-20T02:28:25.506Z,2.05
2022-11-20T02:30:53.344Z,2.10
2022-11-20T02:33:21.238Z,2.09
2022-11-20T02:35:49.243Z,2.18
2022-11-20T02:38:17.419Z,2.08
2022-11-20T02:40:45.365Z,2.03
2022-11-20T02:43:14.631Z,2.07
2022-11-20T02:45:42.490Z,2.03
2022-11-20T02:48:10.368Z,2.01
2022-11-20T02:50:41.797Z,2.05
2022-11-20T02:53:09.714Z,2.15
2022-11-20T02:55:37.711Z,2.12
2022-11-20T02:58:05.549Z,2.01
2022-11-20T03:00:34.732Z,2.01
2022-11-20T03:03:02.624Z,2.05
2022-11-20T03:05:30.501Z,2.07
2022-11-20T03:07:58.352Z,2.01
2022-11-20T03:10:26.220Z,1.95
2022-11-20T03:12:55.917Z,2.09
2022-11-20T03:15:23.922Z,2.03
2022-11-20T03:17:55.619Z,2.00
2022-11-20T03:20:23.624Z,2.07
2022-11-20T03:22:51.585Z,2.03
2022-11-20T03:25:19.480Z,1.95
2022-11-20T03:27:47.419Z,1.96
2022-11-20T03:30:16.205Z,2.01
2022-11-20T03:32:44.142Z,1.95
2022-11-20T03:35:13.367Z,1.94
2022-11-20T03:37:41.241Z,1.87
2022-11-20T03:40:10.150Z,1.95
2022-11-20T03:42:49.858Z,1.85
2022-11-20T03:45:19.522Z,1.76
2022-11-20T03:47:47.589Z,1.82
2022-11-20T03:50:19.486Z,1.81
2022-11-20T03:52:47.411Z,1.87
2022-11-20T03:55:15.453Z,1.94
2022-11-20T03:57:43.324Z,1.78
2022-11-20T04:00:12.398Z,1.76
2022-11-20T04:02:40.297Z,1.77
2022-11-20T04:05:08.784Z,1.82
2022-11-20T04:07:38.044Z,1.95
2022-11-20T04:10:06.881Z,1.86
2022-11-20T04:12:35.447Z,1.78
2022-11-20T04:15:03.320Z,1.82
2022-11-20T04:17:31.132Z,1.91
2022-11-20T04:19:59.003Z,1.91
2022-11-20T04:22:27.033Z,1.84
2022-11-20T04:24:56.269Z,1.86
2022-11-20T04:27:24.154Z,1.95
2022-11-20T04:29:52.005Z,1.88
2022-11-20T04:32:19.866Z,1.82
2022-11-20T04:34:47.688Z,1.75
2022-11-20T04:37:15.547Z,1.62
2022-11-20T04:39:43.416Z,1.67
2022-11-20T04:42:30.969Z,1.67
2022-11-20T04:44:59.149Z,1.64
2022-11-20T04:47:27.017Z,1.66
2022-11-20T04:49:54.924Z,1.61
2022-11-20T04:52:22.718Z,1.62
2022-11-20T04:54:53.626Z,1.56
2022-11-20T04:57:22.955Z,1.58
2022-11-20T04:59:50.816Z,1.51
2022-11-20T05:02:18.760Z,1.47
2022-11-20T05:04:46.563Z,1.56
2022-11-20T05:07:14.440Z,1.47
2022-11-20T05:09:42.351Z,1.44
2022-11-20T05:12:10.432Z,1.33
2022-11-20T05:14:39.665Z,1.31
2022-11-20T05:17:07.690Z,1.26
2022-11-20T05:19:35.499Z,1.27
2022-11-20T05:22:03.325Z,1.29
2022-11-20T05:24:31.128Z,1.22
2022-11-20T05:26:58.924Z,1.16
2022-11-20T05:29:26.784Z,1.24
2022-11-20T05:31:55.985Z,1.24
2022-11-20T05:34:23.821Z,1.19
2022-11-20T05:36:51.794Z,1.23
2022-11-20T05:39:20.202Z,1.31
2022-11-20T05:42:08.153Z,1.30
2022-11-20T05:44:36.043Z,1.32
2022-11-20T05:47:05.871Z,1.36
2022-11-20T05:49:33.802Z,1.23
2022-11-20T05:52:01.634Z,1.34
2022-11-20T05:54:29.529Z,1.28
2022-11-20T05:56:57.489Z,1.15
2022-11-20T05:59:25.384Z,1.14
2022-11-20T06:01:53.199Z,1.08
2022-11-20T06:04:22.500Z,1.05
2022-11-20T06:06:50.352Z,1.15
2022-11-20T06:09:18.267Z,1.08
2022-11-20T06:11:46.076Z,1.02
2022-11-20T06:14:13.932Z,1.09
2022-11-20T06:16:41.760Z,1.03
2022-11-20T06:19:09.725Z,0.94
2022-11-20T06:21:39.176Z,0.93
2022-11-20T06:24:07.870Z,0.86
2022-11-20T06:26:35.882Z,0.83
2022-11-20T06:29:03.693Z,0.90
2022-11-20T06:31:33.765Z,0.84
2022-11-20T06:34:01.824Z,0.86
2022-11-20T06:36:29.752Z,0.83
2022-11-20T06:38:59.129Z,0.91
2022-11-20T06:41:27.311Z,0.86
2022-11-20T06:43:55.475Z,0.94
2022-11-20T06:46:23.387Z,0.93
2022-11-20T06:48:52.005Z,0.98
2022-11-20T06:51:19.940Z,0.93
2022-11-20T06:53:47.810Z,0.95
2022-11-20T06:56:17.048Z,0.95
2022-11-20T06:58:45.155Z,1.07
2022-11-20T07:01:14.527Z,1.06
2022-11-20T07:03:43.027Z,1.11
2022-11-20T07:06:11.719Z,1.15
2022-11-20T07:08:39.912Z,1.14
2022-11-20T07:11:08.989Z,1.10
2022-11-20T07:13:38.261Z,1.14
2022-11-20T07:16:07.928Z,1.21
2022-11-20T07:18:36.367Z,1.12
2022-11-20T07:21:04.692Z,1.07
2022-11-20T07:23:32.552Z,1.23
2022-11-20T07:26:00.754Z,1.17
2022-11-20T07:28:28.667Z,1.19
2022-11-20T07:30:57.856Z,1.18
2022-11-20T07:33:25.822Z,1.19
2022-11-20T07:35:53.796Z,1.14
2022-11-20T07:38:21.731Z,1.21
2022-11-20T07:40:49.892Z,1.10
2022-11-20T07:43:17.800Z,1.13
2022-11-20T07:45:45.853Z,1.09
2022-11-20T07:48:15.503Z,1.14
2022-11-20T07:50:43.503Z,1.37
2022-11-20T07:53:11.320Z,1.33
2022-11-20T07:55:39.328Z,1.35
2022-11-20T07:58:07.248Z,1.40
2022-11-20T08:00:35.416Z,1.46
2022-11-20T08:03:05.443Z,1.46
2022-11-20T08:05:34.877Z,1.44
2022-11-20T08:08:03.130Z,1.42
2022-11-20T08:10:31.119Z,1.47
2022-11-20T08:13:16.436Z,1.45
2022-11-20T08:15:50.392Z,1.58
2022-11-20T08:18:33.895Z,1.51
2022-11-20T08:21:05.719Z,1.60
2022-11-20T08:23:33.622Z,1.68
2022-11-20T08:26:02.681Z,1.66
2022-11-20T08:28:30.659Z,1.75
2022-11-20T08:31:00.708Z,1.70
2022-11-20T08:33:28.611Z,1.75
2022-11-20T08:36:01.184Z,1.84
2022-11-20T08:38:30.521Z,1.76
2022-11-20T08:41:16.827Z,1.98
2022-11-20T08:43:44.831Z,2.01
2022-11-20T08:46:12.798Z,1.88
2022-11-20T08:48:40.726Z,1.96
2022-11-20T08:51:08.601Z,2.17
2022-11-20T08:53:37.853Z,2.05
2022-11-20T08:56:06.478Z,2.10
2022-11-20T08:58:54.985Z,2.21
2022-11-20T09:01:23.231Z,2.37
2022-11-20T09:03:51.522Z,2.37
2022-11-20T09:06:19.998Z,2.21
2022-11-20T09:08:49.454Z,2.40
2022-11-20T09:11:17.611Z,2.32
2022-11-20T09:13:45.596Z,2.35
2022-11-20T09:16:13.471Z,2.46
2022-11-20T09:18:41.590Z,2.36
2022-11-20T09:21:12.300Z,2.35
2022-11-20T09:23:40.793Z,2.30
2022-11-20T09:26:12.492Z,2.29
2022-11-20T09:28:40.704Z,2.31
2022-11-20T09:31:09.416Z,2.20
2022-11-20T09:33:37.394Z,2.07
2022-11-20T09:36:05.859Z,2.16
2022-11-20T09:38:33.873Z,2.16
2022-11-20T09:41:06.392Z,2.17
2022-11-20T09:43:45.597Z,2.12
2022-11-20T09:46:18.272Z,2.16
2022-11-20T09:48:57.691Z,2.11
2022-11-20T09:51:33.774Z,2.16
2022-11-20T09:54:09.246Z,2.38
2022-11-20T09:56:39.895Z,2.51
2022-11-20T09:59:09.932Z,2.80
2022-11-20T10:01:39.251Z,3.12
2022-11-20T10:04:10.564Z,3.11
2022-11-20T10:06:43.282Z,3.30
2022-11-20T10:09:21.416Z,3.56
2022-11-20T10:11:54.237Z,3.22
2022-11-20T10:14:32.831Z,3.24
2022-11-20T10:17:06.001Z,3.43
2022-11-20T10:19:44.380Z,3.60
2022-11-20T10:22:19.747Z,3.64
2022-11-20T10:24:57.446Z,3.57
2022-11-20T10:27:52.421Z,3.65
2022-11-20T10:30:25.853Z,3.72
2022-11-20T10:32:56.231Z,3.91
2022-11-20T10:35:27.638Z,3.93
2022-11-20T10:37:57.978Z,3.63
2022-11-20T10:40:31.641Z,3.95
2022-11-20T10:43:02.051Z,4.17
2022-11-20T10:45:39.012Z,4.09
2022-11-20T10:48:15.156Z,3.81
2022-11-20T10:50:52.027Z,3.59
2022-11-20T10:53:29.347Z,3.10
2022-11-20T10:56:00.510Z,3.16
2022-11-20T10:58:35.614Z,3.03
2022-11-20T11:01:14.030Z,3.14
2022-11-20T11:03:43.905Z,3.32
2022-11-20T11:06:17.084Z,3.57
2022-11-20T11:08:45.407Z,3.44
2022-11-20T11:11:22.685Z,3.36
2022-11-20T11:13:50.601Z,3.34
2022-11-20T11:16:24.079Z,3.51
2022-11-20T11:18:52.660Z,3.75
2022-11-20T11:21:25.542Z,3.80
2022-11-20T11:24:19.621Z,3.95
2022-11-20T11:26:54.970Z,4.14
2022-11-20T11:29:23.026Z,4.17
2022-11-20T11:31:52.316Z,4.09
2022-11-20T11:34:20.171Z,4.22
2022-11-20T11:36:55.672Z,4.35
2022-11-20T11:39:24.094Z,4.47
2022-11-20T11:41:52.236Z,4.50
2022-11-20T11:44:39.391Z,4.14
2022-11-20T11:47:15.009Z,3.89
2022-11-20T11:49:42.869Z,3.95
2022-11-20T11:52:14.892Z,4.26
2022-11-20T11:54:46.163Z,4.01
2022-11-20T11:57:18.334Z,3.92
2022-11-20T12:00:03.029Z,4.00
2022-11-20T12:02:38.897Z,3.92
2022-11-20T12:05:15.625Z,3.97
2022-11-20T12:07:47.022Z,4.29
2022-11-20T12:10:22.137Z,4.31
2022-11-20T12:12:53.300Z,4.14
2022-11-20T12:15:31.972Z,4.37
2022-11-20T12:18:01.959Z,4.34
2022-11-20T12:20:33.449Z,4.42
2022-11-20T12:23:07.324Z,4.66
2022-11-20T12:25:37.953Z,4.99
2022-11-20T12:28:40.216Z,5.04
2022-11-20T12:31:23.466Z,4.50
2022-11-20T12:34:00.244Z,4.87
2022-11-20T12:36:35.542Z,5.02
2022-11-20T12:39:28.729Z,4.99
2022-11-20T12:42:33.493Z,4.41
2022-11-20T12:45:26.825Z,3.84
2022-11-20T12:48:24.838Z,3.42
2022-11-20T12:51:15.107Z,3.14
2022-11-20T12:53:52.045Z,3.20
2022-11-20T12:56:26.891Z,3.11
2022-11-20T12:59:06.541Z,3.31
2022-11-20T13:01:43.531Z,3.10
2022-11-20T13:04:21.279Z,3.07
2022-11-20T13:06:51.278Z,2.78
2022-11-20T13:09:22.779Z,2.64
2022-11-20T13:11:58.152Z,2.44
2022-11-20T13:14:32.588Z,2.31
2022-11-20T13:17:06.274Z,2.33
2022-11-20T13:19:34.584Z,2.20
2022-11-20T13:22:03.880Z,2.19
2022-11-20T13:24:32.728Z,2.16
2022-11-20T13:27:06.551Z,1.99
2022-11-20T13:29:35.281Z,1.87
2022-11-20T13:32:08.451Z,1.82
2022-11-20T13:34:37.512Z,1.72
2022-11-20T13:37:06.861Z,1.65
2022-11-20T13:39:36.416Z,1.52
2022-11-20T13:42:05.871Z,1.46
2022-11-20T13:44:38.741Z,1.46
2022-11-20T13:47:22.277Z,1.44
2022-11-20T13:49:50.329Z,1.41
2022-11-20T13:52:36.698Z,1.24
2022-11-20T13:55:14.450Z,1.17
2022-11-20T13:58:17.333Z,1.26
2022-11-20T14:00:46.978Z,1.27
2022-11-20T14:03:28.427Z,1.36
2022-11-20T14:06:15.457Z,1.26
2022-11-20T14:08:48.424Z,1.18
2022-11-20T14:11:16.995Z,1.21
2022-11-20T14:14:17.593Z,1.23
2022-11-20T14:16:46.146Z,1.23
2022-11-20T14:19:31.263Z,1.28
2022-11-20T14:22:16.673Z,1.25
2022-11-20T14:24:45.930Z,1.19
2022-11-20T14:27:18.221Z,1.13
2022-11-20T14:29:47.084Z,1.08
2022-11-20T14:32:17.790Z,1.08
2022-11-20T14:34:47.037Z,1.02
2022-11-20T14:37:20.625Z,1.06
2022-11-20T14:39:53.811Z,1.03
2022-11-20T14:42:23.138Z,0.97
2022-11-20T14:44:51.973Z,0.93
2022-11-20T14:47:22.913Z,0.91
2022-11-20T14:49:51.974Z,0.93
2022-11-20T14:52:21.447Z,0.89
2022-11-20T14:54:52.456Z,0.78
2022-11-20T14:57:25.878Z,0.75
2022-11-20T14:59:54.081Z,0.68
2022-11-20T15:02:22.013Z,0.82
2022-11-20T15:04:51.064Z,0.84
2022-11-20T15:07:26.825Z,0.83
2022-11-20T15:10:08.168Z,0.83
2022-11-20T15:12:38.060Z,0.77
2022-11-20T15:15:07.337Z,0.74
2022-11-20T15:17:38.809Z,0.67
2022-11-20T15:20:12.367Z,0.55
2022-11-20T15:22:40.205Z,0.53
2022-11-20T15:25:15.738Z,0.61
2022-11-20T15:27:43.822Z,0.65
2022-11-20T15:30:16.016Z,0.65
2022-11-20T15:32:44.142Z,0.55
2022-11-20T15:35:12.668Z,0.53
2022-11-20T15:37:41.087Z,0.59
2022-11-20T15:40:10.197Z,0.64
2022-11-20T15:42:39.490Z,0.66
2022-11-20T15:45:07.725Z,0.52
2022-11-20T15:47:36.674Z,0.59
2022-11-20T15:50:05.073Z,0.46
2022-11-20T15:52:40.421Z,0.46
2022-11-20T15:55:12.048Z,0.44
2022-11-20T15:57:41.283Z,0.48
2022-11-20T16:00:10.620Z,0.56
2022-11-20T16:02:41.633Z,0.56
2022-11-20T16:05:12.219Z,0.59
2022-11-20T16:07:40.195Z,0.50
2022-11-20T16:10:08.744Z,0.56
2022-11-20T16:12:53.958Z,0.58
2022-11-20T16:15:40.612Z,0.53
2022-11-20T16:18:10.771Z,0.55
2022-11-20T16:20:38.940Z,0.54
2022-11-20T16:23:07.515Z,0.55
2022-11-20T16:25:35.551Z,0.51
2022-11-20T16:28:03.719Z,0.56
2022-11-20T16:30:33.089Z,0.55
2022-11-20T16:33:01.084Z,0.59
2022-11-20T16:35:29.233Z,0.66
2022-11-20T16:37:57.376Z,0.73
2022-11-20T16:40:26.429Z,0.69
2022-11-20T16:42:54.451Z,0.69
2022-11-20T16:45:26.950Z,0.72
2022-11-20T16:47:58.266Z,0.74
2022-11-20T16:50:26.186Z,0.77
2022-11-20T16:52:54.128Z,0.80
2022-11-20T16:55:22.248Z,0.96
2022-11-20T16:57:50.196Z,0.95
2022-11-20T17:00:18.556Z,0.88
2022-11-20T17:02:46.511Z,0.92
2022-11-20T17:05:15.908Z,0.88
2022-11-20T17:07:43.907Z,0.83
2022-11-20T17:10:11.847Z,0.86
2022-11-20T17:12:39.758Z,0.82
2022-11-20T17:15:08.608Z,0.79
2022-11-20T17:17:36.560Z,0.76
2022-11-20T17:20:04.772Z,0.69
2022-11-20T17:22:34.138Z,0.68
2022-11-20T17:25:02.094Z,0.71
2022-11-20T17:27:29.999Z,0.70
2022-11-20T17:29:59.023Z,0.74
2022-11-20T17:32:26.885Z,0.80
2022-11-20T17:34:54.764Z,0.93
2022-11-20T17:37:22.673Z,1.06
2022-11-20T17:39:52.217Z,0.88
2022-11-20T17:42:29.764Z,0.83
2022-11-20T17:44:59.643Z,0.77
2022-11-20T17:47:27.531Z,0.69
2022-11-20T17:49:55.415Z,0.70
2022-11-20T17:52:23.600Z,0.67
2022-11-20T17:54:55.858Z,0.74
2022-11-20T17:57:41.884Z,0.75
2022-11-20T18:00:13.170Z,0.83
2022-11-20T18:02:41.111Z,0.85
2022-11-20T18:05:09.536Z,0.84
2022-11-20T18:07:41.644Z,0.98
2022-11-20T18:10:11.637Z,1.01
2022-11-20T18:12:39.470Z,0.81
2022-11-20T18:15:08.058Z,0.80
2022-11-20T18:17:36.369Z,0.68
2022-11-20T18:20:27.760Z,0.58
2022-11-20T18:22:52.734Z,0.72
2022-11-20T18:25:22.169Z,0.67
2022-11-20T18:27:50.033Z,0.77
2022-11-20T18:30:18.844Z,0.74
2022-11-20T18:32:46.800Z,0.69
2022-11-20T18:35:15.062Z,0.66
2022-11-20T18:37:42.932Z,0.66
2022-11-20T18:40:12.469Z,0.69
2022-11-20T18:42:59.342Z,0.66
2022-11-20T18:45:27.228Z,0.65
2022-11-20T18:47:55.072Z,0.69
2022-11-20T18:50:23.254Z,0.64
2022-11-20T18:52:51.260Z,0.63
2022-11-20T18:55:19.479Z,0.62
2022-11-20T18:57:48.842Z,0.63
2022-11-20T19:00:17.849Z,0.69
2022-11-20T19:02:45.737Z,0.58
2022-11-20T19:05:14.728Z,0.69
2022-11-20T19:07:43.365Z,0.70
2022-11-20T19:10:11.583Z,0.54
2022-11-20T19:12:39.528Z,0.55
2022-11-20T19:15:09.441Z,0.61
2022-11-20T19:17:37.730Z,0.70
2022-11-20T19:20:06.271Z,0.51
2022-11-20T19:22:34.333Z,0.53
2022-11-20T19:25:02.240Z,0.40
2022-11-20T19:27:30.223Z,0.38
2022-11-20T19:30:03.090Z,0.34
2022-11-20T19:32:32.885Z,0.37
2022-11-20T19:35:00.781Z,0.24
2022-11-20T19:37:29.717Z,0.25
2022-11-20T19:39:59.567Z,0.31
2022-11-20T19:42:27.556Z,0.31
2022-11-20T19:44:55.509Z,0.31
2022-11-20T19:47:35.391Z,0.23
2022-11-20T19:50:13.066Z,0.45
2022-11-20T19:52:41.308Z,0.44
2022-11-20T19:55:09.977Z,0.37
2022-11-20T19:57:37.855Z,0.45
2022-11-20T20:00:06.686Z,0.41
2022-11-20T20:02:34.651Z,0.37
2022-11-20T20:05:02.587Z,0.49
2022-11-20T20:07:31.954Z,0.39
2022-11-20T20:09:59.887Z,0.42
2022-11-20T20:12:27.793Z,0.51
2022-11-20T20:14:55.749Z,0.49
2022-11-20T20:17:23.618Z,0.51
2022-11-20T20:19:51.511Z,0.44
2022-11-20T20:22:19.348Z,0.46
2022-11-20T20:24:48.592Z,0.44
2022-11-20T20:27:16.489Z,0.38
2022-11-20T20:29:44.440Z,0.34
2022-11-20T20:32:12.330Z,0.36
2022-11-20T20:34:40.282Z,0.34
2022-11-20T20:37:08.164Z,0.37
2022-11-20T20:39:36.064Z,0.41
2022-11-20T20:42:05.753Z,0.46
2022-11-20T20:44:51.054Z,0.51
2022-11-20T20:47:18.965Z,0.41
2022-11-20T20:49:46.773Z,0.30
2022-11-20T20:52:14.946Z,0.24
2022-11-20T20:54:43.273Z,0.26
2022-11-20T20:57:12.899Z,0.23
2022-11-20T20:59:40.796Z,0.17
2022-11-20T21:02:08.847Z,0.15
2022-11-20T21:04:36.811Z,0.11
2022-11-20T21:07:04.816Z,0.17
2022-11-20T21:09:32.680Z,0.15
2022-11-20T21:12:00.613Z,0.09
2022-11-20T21:14:29.859Z,0.04
2022-11-20T21:16:57.762Z,0.02
2022-11-20T21:19:25.664Z,0.01
2022-11-20T21:22:03.333Z,0.02
2022-11-20T21:24:33.363Z,-0.01
2022-11-20T21:27:02.117Z,-0.06
2022-11-20T21:29:31.680Z,-0.08
2022-11-20T21:31:59.666Z,-0.09
2022-11-20T21:34:27.659Z,-0.06
2022-11-20T21:36:55.897Z,-0.08
2022-11-20T21:39:23.768Z,-0.08
2022-11-20T21:41:51.652Z,-0.10
2022-11-20T21:44:34.826Z,-0.14
2022-11-20T21:47:03.874Z,-0.12
2022-11-20T21:49:31.720Z,-0.06
2022-11-20T21:51:59.782Z,0.04
2022-11-20T21:54:27.744Z,-0.05
2022-11-20T21:56:55.725Z,-0.06
2022-11-20T21:59:23.725Z,-0.02
2022-11-20T22:01:51.733Z,-0.02
2022-11-20T22:04:22.816Z,-0.04
2022-11-20T22:06:50.891Z,-0.08
2022-11-20T22:09:18.742Z,-0.11
2022-11-20T22:11:46.615Z,-0.13
2022-11-20T22:14:24.048Z,-0.13
2022-11-20T22:16:53.694Z,-0.12
2022-11-20T22:19:23.887Z,-0.05
2022-11-20T22:21:51.838Z,-0.02
2022-11-20T22:24:21.507Z,0.00
2022-11-20T22:26:50.327Z,0.01
2022-11-20T22:29:19.505Z,0.00
2022-11-20T22:31:47.769Z,-0.02
2022-11-20T22:34:15.832Z,-0.01
2022-11-20T22:36:45.564Z,0.02
2022-11-20T22:39:13.493Z,0.02
2022-11-20T22:41:41.345Z,-0.06
2022-11-20T22:44:09.805Z,-0.13
2022-11-20T22:46:38.434Z,-0.09
2022-11-20T22:49:08.395Z,-0.13
2022-11-20T22:51:37.973Z,-0.17
2022-11-20T22:54:07.641Z,-0.24
2022-11-20T22:56:35.902Z,-0.30
2022-11-20T22:59:04.034Z,-0.30
2022-11-20T23:01:33.155Z,-0.33
2022-11-20T23:04:02.317Z,-0.34
2022-11-20T23:06:30.488Z,-0.40
2022-11-20T23:08:58.769Z,-0.46
2022-11-20T23:11:29.551Z,-0.52
2022-11-20T23:13:58.905Z,-0.51
2022-11-20T23:16:28.158Z,-0.50
2022-11-20T23:18:57.433Z,-0.57
2022-11-20T23:21:25.634Z,-0.54
2022-11-20T23:23:55.394Z,-0.57
2022-11-20T23:26:24.933Z,-0.56
2022-11-20T23:28:56.288Z,-0.58
2022-11-20T23:31:24.788Z,-0.59
2022-11-20T23:33:53.163Z,-0.59
2022-11-20T23:36:21.041Z,-0.68
2022-11-20T23:38:48.872Z,-0.72
2022-11-20T23:41:16.766Z,-0.75
2022-11-20T23:43:44.851Z,-0.75
2022-11-20T23:46:16.784Z,-0.79
2022-11-20T23:48:45.879Z,-0.80
2022-11-20T23:51:14.027Z,-0.86
2022-11-20T23:53:42.317Z,-0.88
2022-11-20T23:56:10.235Z,-0.79
2022-11-20T23:58:39.316Z,-0.81
